PDA5501 UKLL-UKBB
Flight info
| Callsign | PDA5501 |
|---|---|
| Flight time | 0h 57m |
| Altitude | 27000 |
| Route | ADBAN N983 SORON M986 SLV |
| Aircraft | B738/M-SDE2E3FGHIRWXY/LB1 |
Departure
| Time | 2026-04-30 07:10 |
|---|---|
| Airport | Lviv International Airport (UKLL) |
Arrival
| Time | 2026-04-30 08:08 |
|---|---|
| Airport | Boryspil International Airport (UKBB) |
| Time | Latitude | Longitude | Altitude | Speed | Heading |
|---|---|---|---|---|---|
| 2026-04-30 06:36 | 49.81269 | 23.95909 | 1051 ft | 0 kts | 45° |
| 2026-04-30 06:59 | 49.81261 | 23.95897 | 1051 ft | 2 kts | 37° |
| 2026-04-30 06:59 | 49.81250 | 23.95882 | 1051 ft | 2 kts | 48° |
| 2026-04-30 06:59 | 49.81240 | 23.95864 | 1052 ft | 2 kts | 62° |
| 2026-04-30 06:59 | 49.81235 | 23.95842 | 1052 ft | 2 kts | 78° |
| 2026-04-30 07:00 | 49.81234 | 23.95819 | 1053 ft | 2 kts | 97° |
| 2026-04-30 07:00 | 49.81237 | 23.95797 | 1053 ft | 2 kts | 114° |
| 2026-04-30 07:00 | 49.81245 | 23.95777 | 1053 ft | 1 kts | 131° |
| 2026-04-30 07:00 | 49.81250 | 23.95770 | 1053 ft | 1 kts | 138° |
| 2026-04-30 07:01 | 49.81251 | 23.95768 | 1053 ft | 0 kts | 136° |
| 2026-04-30 07:03 | 49.81247 | 23.95774 | 1053 ft | 0 kts | 136° |
| 2026-04-30 07:03 | 49.81218 | 23.95818 | 1052 ft | 11 kts | 136° |
| 2026-04-30 07:03 | 49.81145 | 23.95926 | 1050 ft | 15 kts | 135° |
| 2026-04-30 07:04 | 49.81059 | 23.96031 | 1048 ft | 16 kts | 171° |
| 2026-04-30 07:04 | 49.80947 | 23.96025 | 1048 ft | 16 kts | 185° |
| 2026-04-30 07:04 | 49.80839 | 23.96044 | 1048 ft | 15 kts | 143° |
| 2026-04-30 07:04 | 49.80759 | 23.96163 | 1048 ft | 15 kts | 136° |
| 2026-04-30 07:05 | 49.80585 | 23.96425 | 1048 ft | 20 kts | 135° |
| 2026-04-30 07:05 | 49.80484 | 23.96578 | 1049 ft | 19 kts | 135° |
| 2026-04-30 07:05 | 49.80388 | 23.96724 | 1051 ft | 18 kts | 134° |
| 2026-04-30 07:06 | 49.80299 | 23.96859 | 1053 ft | 17 kts | 135° |
| 2026-04-30 07:06 | 49.80214 | 23.96987 | 1055 ft | 17 kts | 136° |
| 2026-04-30 07:06 | 49.80110 | 23.97142 | 1059 ft | 22 kts | 135° |
| 2026-04-30 07:06 | 49.80011 | 23.97296 | 1063 ft | 11 kts | 127° |
| 2026-04-30 07:07 | 49.80000 | 23.97375 | 1065 ft | 6 kts | 102° |
| 2026-04-30 07:07 | 49.79987 | 23.97423 | 1066 ft | 3 kts | 122° |
| 2026-04-30 07:07 | 49.79971 | 23.97452 | 1067 ft | 4 kts | 134° |
| 2026-04-30 07:07 | 49.79940 | 23.97466 | 1068 ft | 4 kts | 204° |
| 2026-04-30 07:08 | 49.79923 | 23.97426 | 1068 ft | 5 kts | 279° |
| 2026-04-30 07:08 | 49.79953 | 23.97375 | 1066 ft | 7 kts | 316° |
| 2026-04-30 07:08 | 49.79973 | 23.97345 | 1065 ft | 0 kts | 316° |
| 2026-04-30 07:09 | 49.80012 | 23.97285 | 1063 ft | 31 kts | 316° |
| 2026-04-30 07:09 | 49.80356 | 23.96767 | 1052 ft | 102 kts | 316° |
| 2026-04-30 07:10 | 49.81009 | 23.95783 | 1051 ft | 157 kts | 314° |
| 2026-04-30 07:10 | 49.81818 | 23.94558 | 1523 ft | 166 kts | 319° |
| 2026-04-30 07:10 | 49.82664 | 23.93338 | 2219 ft | 168 kts | 321° |
| 2026-04-30 07:10 | 49.83557 | 23.92074 | 2744 ft | 178 kts | 321° |
| 2026-04-30 07:11 | 49.84493 | 23.90761 | 3163 ft | 188 kts | 321° |
| 2026-04-30 07:11 | 49.85500 | 23.89315 | 3508 ft | 206 kts | 320° |
| 2026-04-30 07:11 | 49.86557 | 23.87744 | 3942 ft | 219 kts | 319° |
| 2026-04-30 07:11 | 49.87694 | 23.86058 | 4315 ft | 236 kts | 319° |
| 2026-04-30 07:12 | 49.88933 | 23.84281 | 4824 ft | 247 kts | 320° |
| 2026-04-30 07:12 | 49.90255 | 23.82547 | 5301 ft | 257 kts | 330° |
| 2026-04-30 07:12 | 49.91949 | 23.81720 | 5998 ft | 256 kts | 360° |
| 2026-04-30 07:12 | 49.93670 | 23.82162 | 6762 ft | 255 kts | 21° |
| 2026-04-30 07:13 | 49.95215 | 23.83456 | 7475 ft | 258 kts | 36° |
| 2026-04-30 07:13 | 49.96455 | 23.85491 | 8170 ft | 264 kts | 59° |
| 2026-04-30 07:13 | 49.96990 | 23.88205 | 8901 ft | 271 kts | 84° |
| 2026-04-30 07:13 | 49.96843 | 23.91115 | 9627 ft | 277 kts | 97° |
| 2026-04-30 07:14 | 49.96470 | 23.94067 | 10311 ft | 283 kts | 98° |
| 2026-04-30 07:14 | 49.96089 | 23.97097 | 10746 ft | 297 kts | 97° |
| 2026-04-30 07:14 | 49.95718 | 24.00326 | 11170 ft | 312 kts | 97° |
| 2026-04-30 07:14 | 49.95348 | 24.03740 | 11590 ft | 327 kts | 96° |
| 2026-04-30 07:15 | 49.94974 | 24.07296 | 11984 ft | 342 kts | 96° |
| 2026-04-30 07:15 | 49.94587 | 24.10987 | 12345 ft | 357 kts | 96° |
| 2026-04-30 07:15 | 49.94185 | 24.14795 | 12373 ft | 361 kts | 96° |
| 2026-04-30 07:15 | 49.93769 | 24.18704 | 12656 ft | 373 kts | 96° |
| 2026-04-30 07:16 | 49.93343 | 24.22610 | 13643 ft | 370 kts | 97° |
| 2026-04-30 07:16 | 49.92801 | 24.26518 | 14423 ft | 375 kts | 100° |
| 2026-04-30 07:16 | 49.92108 | 24.30450 | 15188 ft | 380 kts | 102° |
| 2026-04-30 07:16 | 49.91346 | 24.34336 | 15937 ft | 385 kts | 103° |
| 2026-04-30 07:17 | 49.90543 | 24.38314 | 16686 ft | 390 kts | 103° |
| 2026-04-30 07:17 | 49.89739 | 24.42306 | 17406 ft | 394 kts | 103° |
| 2026-04-30 07:17 | 49.88123 | 24.50500 | 18809 ft | 402 kts | 102° |
| 2026-04-30 07:18 | 49.87307 | 24.54696 | 19516 ft | 406 kts | 102° |
| 2026-04-30 07:18 | 49.86504 | 24.58847 | 20231 ft | 409 kts | 102° |
| 2026-04-30 07:18 | 49.85690 | 24.63049 | 20915 ft | 412 kts | 102° |
| 2026-04-30 07:18 | 49.84858 | 24.67351 | 21559 ft | 416 kts | 102° |
| 2026-04-30 07:19 | 49.84022 | 24.71666 | 22189 ft | 420 kts | 102° |
| 2026-04-30 07:19 | 49.83174 | 24.76030 | 22801 ft | 424 kts | 102° |
| 2026-04-30 07:19 | 49.82321 | 24.80415 | 23391 ft | 427 kts | 102° |
| 2026-04-30 07:19 | 49.81508 | 24.84797 | 23959 ft | 430 kts | 100° |
| 2026-04-30 07:20 | 49.80845 | 24.89311 | 24556 ft | 430 kts | 96° |
| 2026-04-30 07:20 | 49.80462 | 24.93855 | 25117 ft | 429 kts | 90° |
| 2026-04-30 07:20 | 49.80289 | 24.98451 | 25649 ft | 431 kts | 87° |
| 2026-04-30 07:20 | 49.80227 | 25.03093 | 26191 ft | 432 kts | 86° |
| 2026-04-30 07:21 | 49.80219 | 25.07726 | 26653 ft | 436 kts | 85° |
| 2026-04-30 07:21 | 49.80230 | 25.12415 | 27215 ft | 435 kts | 85° |
| 2026-04-30 07:21 | 49.80243 | 25.17127 | 27361 ft | 436 kts | 85° |
| 2026-04-30 07:21 | 49.80249 | 25.21784 | 27357 ft | 434 kts | 85° |
| 2026-04-30 07:22 | 49.80239 | 25.31161 | 27356 ft | 433 kts | 85° |
| 2026-04-30 07:22 | 49.80225 | 25.35797 | 27360 ft | 432 kts | 85° |
| 2026-04-30 07:22 | 49.80206 | 25.40451 | 27354 ft | 434 kts | 85° |
| 2026-04-30 07:23 | 49.80182 | 25.45056 | 27353 ft | 434 kts | 85° |
| 2026-04-30 07:23 | 49.80154 | 25.49716 | 27355 ft | 434 kts | 85° |
| 2026-04-30 07:23 | 49.80122 | 25.54403 | 27355 ft | 436 kts | 85° |
| 2026-04-30 07:23 | 49.80089 | 25.59082 | 27345 ft | 435 kts | 85° |
| 2026-04-30 07:24 | 49.80053 | 25.63730 | 27351 ft | 435 kts | 85° |
| 2026-04-30 07:24 | 49.80014 | 25.68410 | 27356 ft | 436 kts | 86° |
| 2026-04-30 07:24 | 49.79975 | 25.73095 | 27350 ft | 437 kts | 86° |
| 2026-04-30 07:24 | 49.79932 | 25.77800 | 27358 ft | 437 kts | 86° |
| 2026-04-30 07:25 | 49.79888 | 25.82441 | 27357 ft | 438 kts | 86° |
| 2026-04-30 07:25 | 49.79841 | 25.87163 | 27362 ft | 438 kts | 86° |
| 2026-04-30 07:25 | 49.79792 | 25.91895 | 27362 ft | 439 kts | 86° |
| 2026-04-30 07:25 | 49.79742 | 25.96558 | 27368 ft | 438 kts | 86° |
| 2026-04-30 07:26 | 49.79689 | 26.01291 | 27363 ft | 439 kts | 86° |
| 2026-04-30 07:26 | 49.79636 | 26.05964 | 27369 ft | 439 kts | 86° |
| 2026-04-30 07:26 | 49.79579 | 26.10708 | 27369 ft | 441 kts | 86° |
| 2026-04-30 07:26 | 49.79522 | 26.15429 | 27359 ft | 441 kts | 86° |
| 2026-04-30 07:27 | 49.79462 | 26.20180 | 27364 ft | 441 kts | 87° |
| 2026-04-30 07:27 | 49.79400 | 26.24894 | 27363 ft | 442 kts | 86° |
| 2026-04-30 07:27 | 49.79336 | 26.29615 | 27363 ft | 442 kts | 87° |
| 2026-04-30 07:27 | 49.79271 | 26.34334 | 27359 ft | 442 kts | 87° |
| 2026-04-30 07:28 | 49.79202 | 26.39085 | 27361 ft | 442 kts | 87° |
| 2026-04-30 07:28 | 49.79132 | 26.43818 | 27356 ft | 442 kts | 87° |
| 2026-04-30 07:28 | 49.79061 | 26.48549 | 27352 ft | 444 kts | 87° |
| 2026-04-30 07:28 | 49.78988 | 26.53315 | 27344 ft | 444 kts | 87° |
| 2026-04-30 07:29 | 49.78911 | 26.58055 | 27353 ft | 443 kts | 87° |
| 2026-04-30 07:29 | 49.78833 | 26.62873 | 27348 ft | 446 kts | 87° |
| 2026-04-30 07:29 | 49.78753 | 26.67636 | 27350 ft | 446 kts | 88° |
| 2026-04-30 07:29 | 49.78671 | 26.72441 | 27347 ft | 446 kts | 88° |
| 2026-04-30 07:30 | 49.78501 | 26.81996 | 27348 ft | 447 kts | 88° |
| 2026-04-30 07:30 | 49.78413 | 26.86751 | 27351 ft | 447 kts | 88° |
| 2026-04-30 07:30 | 49.78322 | 26.91581 | 27352 ft | 448 kts | 88° |
| 2026-04-30 07:31 | 49.78231 | 26.96333 | 27349 ft | 448 kts | 88° |
| 2026-04-30 07:31 | 49.78136 | 27.01156 | 27351 ft | 448 kts | 88° |
| 2026-04-30 07:31 | 49.78040 | 27.05929 | 27351 ft | 449 kts | 88° |
| 2026-04-30 07:31 | 49.77941 | 27.10757 | 27349 ft | 449 kts | 88° |
| 2026-04-30 07:32 | 49.77840 | 27.15566 | 27348 ft | 449 kts | 88° |
| 2026-04-30 07:32 | 49.77737 | 27.20395 | 27350 ft | 449 kts | 88° |
| 2026-04-30 07:32 | 49.77632 | 27.25206 | 27349 ft | 450 kts | 88° |
| 2026-04-30 07:32 | 49.77526 | 27.29991 | 27347 ft | 450 kts | 88° |
| 2026-04-30 07:33 | 49.77416 | 27.34857 | 27352 ft | 450 kts | 88° |
| 2026-04-30 07:33 | 49.77306 | 27.39625 | 27348 ft | 450 kts | 88° |
| 2026-04-30 07:33 | 49.77192 | 27.44451 | 27349 ft | 451 kts | 88° |
| 2026-04-30 07:33 | 49.77078 | 27.49303 | 27342 ft | 453 kts | 88° |
| 2026-04-30 07:34 | 49.76960 | 27.54170 | 27344 ft | 452 kts | 88° |
| 2026-04-30 07:34 | 49.76841 | 27.59016 | 27339 ft | 454 kts | 89° |
| 2026-04-30 07:34 | 49.76720 | 27.63852 | 27340 ft | 453 kts | 89° |
| 2026-04-30 07:34 | 49.76595 | 27.68759 | 27334 ft | 454 kts | 89° |
| 2026-04-30 07:35 | 49.76470 | 27.73581 | 27338 ft | 454 kts | 89° |
| 2026-04-30 07:35 | 49.76380 | 27.78458 | 27335 ft | 453 kts | 87° |
| 2026-04-30 07:35 | 49.76515 | 27.83294 | 27339 ft | 450 kts | 81° |
| 2026-04-30 07:35 | 49.77066 | 27.87985 | 27334 ft | 447 kts | 72° |
| 2026-04-30 07:36 | 49.77964 | 27.92553 | 27337 ft | 445 kts | 68° |
| 2026-04-30 07:36 | 49.79031 | 27.97062 | 27337 ft | 446 kts | 66° |
| 2026-04-30 07:36 | 49.80170 | 28.01492 | 27332 ft | 445 kts | 65° |
| 2026-04-30 07:36 | 49.81351 | 28.05931 | 27329 ft | 446 kts | 64° |
| 2026-04-30 07:37 | 49.82532 | 28.10352 | 27339 ft | 445 kts | 64° |
| 2026-04-30 07:37 | 49.83699 | 28.14743 | 27336 ft | 447 kts | 65° |
| 2026-04-30 07:37 | 49.84869 | 28.19198 | 27334 ft | 448 kts | 65° |
| 2026-04-30 07:37 | 49.86034 | 28.23681 | 27335 ft | 449 kts | 65° |
| 2026-04-30 07:38 | 49.87184 | 28.28150 | 27336 ft | 448 kts | 65° |
| 2026-04-30 07:38 | 49.88322 | 28.32608 | 27338 ft | 449 kts | 65° |
| 2026-04-30 07:38 | 49.89466 | 28.37110 | 27332 ft | 449 kts | 65° |
| 2026-04-30 07:38 | 49.90595 | 28.41582 | 27335 ft | 448 kts | 65° |
| 2026-04-30 07:39 | 49.91729 | 28.46088 | 27343 ft | 449 kts | 65° |
| 2026-04-30 07:39 | 49.92852 | 28.50555 | 27340 ft | 449 kts | 65° |
| 2026-04-30 07:39 | 49.93977 | 28.55047 | 27339 ft | 449 kts | 65° |
| 2026-04-30 07:39 | 49.95107 | 28.59569 | 27342 ft | 449 kts | 66° |
| 2026-04-30 07:40 | 49.96236 | 28.64096 | 27337 ft | 450 kts | 66° |
| 2026-04-30 07:40 | 49.97360 | 28.68612 | 27335 ft | 451 kts | 66° |
| 2026-04-30 07:40 | 49.98490 | 28.73164 | 27327 ft | 451 kts | 66° |
| 2026-04-30 07:40 | 49.99616 | 28.77709 | 27321 ft | 451 kts | 66° |
| 2026-04-30 07:41 | 50.00744 | 28.82270 | 27322 ft | 451 kts | 66° |
| 2026-04-30 07:41 | 50.01856 | 28.86777 | 27328 ft | 452 kts | 66° |
| 2026-04-30 07:41 | 50.02972 | 28.91307 | 27321 ft | 452 kts | 66° |
| 2026-04-30 07:41 | 50.04094 | 28.95874 | 27320 ft | 452 kts | 66° |
| 2026-04-30 07:42 | 50.05205 | 29.00420 | 27317 ft | 452 kts | 67° |
| 2026-04-30 07:42 | 50.06312 | 29.04990 | 27314 ft | 453 kts | 67° |
| 2026-04-30 07:42 | 50.07410 | 29.09551 | 27316 ft | 453 kts | 67° |
| 2026-04-30 07:42 | 50.08509 | 29.14129 | 27320 ft | 454 kts | 67° |
| 2026-04-30 07:43 | 50.09610 | 29.18728 | 27321 ft | 455 kts | 67° |
| 2026-04-30 07:43 | 50.10708 | 29.23324 | 27317 ft | 454 kts | 67° |
| 2026-04-30 07:43 | 50.11806 | 29.27930 | 27317 ft | 455 kts | 67° |
| 2026-04-30 07:43 | 50.12898 | 29.32520 | 27320 ft | 454 kts | 67° |
| 2026-04-30 07:44 | 50.14000 | 29.37158 | 27319 ft | 455 kts | 67° |
| 2026-04-30 07:44 | 50.15093 | 29.41763 | 27325 ft | 455 kts | 67° |
| 2026-04-30 07:44 | 50.16181 | 29.46361 | 27317 ft | 456 kts | 67° |
| 2026-04-30 07:44 | 50.17276 | 29.50996 | 27319 ft | 456 kts | 67° |
| 2026-04-30 07:45 | 50.18368 | 29.55612 | 27317 ft | 454 kts | 66° |
| 2026-04-30 07:45 | 50.19540 | 29.60142 | 27317 ft | 455 kts | 64° |
| 2026-04-30 07:45 | 50.20840 | 29.64640 | 27319 ft | 454 kts | 62° |
| 2026-04-30 07:45 | 50.22189 | 29.69041 | 27318 ft | 455 kts | 62° |
| 2026-04-30 07:46 | 50.23588 | 29.73507 | 27317 ft | 455 kts | 62° |
| 2026-04-30 07:46 | 50.24976 | 29.77917 | 27184 ft | 452 kts | 62° |
| 2026-04-30 07:46 | 50.26337 | 29.82262 | 26685 ft | 448 kts | 62° |
| 2026-04-30 07:46 | 50.27700 | 29.86640 | 25994 ft | 449 kts | 62° |
| 2026-04-30 07:47 | 50.29050 | 29.91005 | 25116 ft | 451 kts | 62° |
| 2026-04-30 07:47 | 50.30392 | 29.95371 | 24423 ft | 447 kts | 63° |
| 2026-04-30 07:47 | 50.31717 | 29.99708 | 23885 ft | 440 kts | 63° |
| 2026-04-30 07:47 | 50.33019 | 30.03991 | 23292 ft | 435 kts | 63° |
| 2026-04-30 07:48 | 50.34301 | 30.08224 | 22667 ft | 430 kts | 63° |
| 2026-04-30 07:48 | 50.35561 | 30.12398 | 22054 ft | 425 kts | 63° |
| 2026-04-30 07:48 | 50.36811 | 30.16565 | 21424 ft | 421 kts | 63° |
| 2026-04-30 07:48 | 50.37922 | 30.20787 | 20770 ft | 419 kts | 68° |
| 2026-04-30 07:49 | 50.38669 | 30.25155 | 20142 ft | 417 kts | 78° |
| 2026-04-30 07:49 | 50.38923 | 30.29625 | 19524 ft | 414 kts | 88° |
| 2026-04-30 07:49 | 50.38745 | 30.34108 | 18901 ft | 411 kts | 95° |
| 2026-04-30 07:49 | 50.38258 | 30.38473 | 18334 ft | 407 kts | 101° |
| 2026-04-30 07:50 | 50.37528 | 30.42709 | 17754 ft | 403 kts | 105° |
| 2026-04-30 07:50 | 50.36656 | 30.46808 | 17170 ft | 399 kts | 108° |
| 2026-04-30 07:50 | 50.35707 | 30.50896 | 16574 ft | 395 kts | 108° |
| 2026-04-30 07:50 | 50.34766 | 30.54847 | 15986 ft | 391 kts | 109° |
| 2026-04-30 07:51 | 50.33821 | 30.58829 | 15508 ft | 385 kts | 108° |
| 2026-04-30 07:51 | 50.32919 | 30.62678 | 15237 ft | 372 kts | 108° |
| 2026-04-30 07:51 | 50.31994 | 30.66382 | 15095 ft | 358 kts | 113° |
| 2026-04-30 07:51 | 50.30765 | 30.69691 | 14957 ft | 345 kts | 128° |
| 2026-04-30 07:52 | 50.28989 | 30.72069 | 14831 ft | 333 kts | 152° |
| 2026-04-30 07:52 | 50.26889 | 30.73247 | 14713 ft | 320 kts | 169° |
| 2026-04-30 07:52 | 50.24744 | 30.73866 | 14582 ft | 309 kts | 171° |
| 2026-04-30 07:52 | 50.22654 | 30.74451 | 14453 ft | 298 kts | 170° |
| 2026-04-30 07:53 | 50.20645 | 30.74986 | 14316 ft | 288 kts | 174° |
| 2026-04-30 07:53 | 50.18683 | 30.75213 | 14036 ft | 284 kts | 181° |
| 2026-04-30 07:53 | 50.16719 | 30.75145 | 13664 ft | 284 kts | 184° |
| 2026-04-30 07:53 | 50.14741 | 30.74959 | 13323 ft | 282 kts | 185° |
| 2026-04-30 07:54 | 50.12816 | 30.74769 | 12994 ft | 281 kts | 185° |
| 2026-04-30 07:54 | 50.10856 | 30.74598 | 12655 ft | 279 kts | 184° |
| 2026-04-30 07:54 | 50.08939 | 30.74448 | 12324 ft | 278 kts | 184° |
| 2026-04-30 07:54 | 50.07016 | 30.74309 | 11995 ft | 277 kts | 184° |
| 2026-04-30 07:55 | 50.05102 | 30.74177 | 11664 ft | 275 kts | 184° |
| 2026-04-30 07:55 | 50.03184 | 30.74042 | 11332 ft | 274 kts | 184° |
| 2026-04-30 07:55 | 50.01307 | 30.73910 | 11008 ft | 273 kts | 184° |
| 2026-04-30 07:55 | 49.99411 | 30.73776 | 10682 ft | 271 kts | 184° |
| 2026-04-30 07:56 | 49.97538 | 30.73645 | 10355 ft | 270 kts | 183° |
| 2026-04-30 07:56 | 49.95663 | 30.73510 | 10033 ft | 269 kts | 183° |
| 2026-04-30 07:56 | 49.93804 | 30.73375 | 9715 ft | 267 kts | 183° |
| 2026-04-30 07:56 | 49.91990 | 30.73242 | 9654 ft | 257 kts | 183° |
| 2026-04-30 07:57 | 49.90214 | 30.73198 | 9309 ft | 259 kts | 176° |
| 2026-04-30 07:57 | 49.88482 | 30.73906 | 8910 ft | 260 kts | 148° |
| 2026-04-30 07:57 | 49.87196 | 30.75818 | 8608 ft | 254 kts | 119° |
| 2026-04-30 07:57 | 49.86563 | 30.78290 | 8299 ft | 250 kts | 99° |
| 2026-04-30 07:58 | 49.86378 | 30.80930 | 7978 ft | 245 kts | 83° |
| 2026-04-30 07:58 | 49.86903 | 30.83352 | 7703 ft | 235 kts | 50° |
| 2026-04-30 07:58 | 49.88087 | 30.85016 | 7432 ft | 228 kts | 28° |
| 2026-04-30 07:58 | 49.89522 | 30.85948 | 7151 ft | 224 kts | 14° |
| 2026-04-30 07:59 | 49.91063 | 30.86315 | 6871 ft | 222 kts | 2° |
| 2026-04-30 07:59 | 49.92584 | 30.86400 | 6588 ft | 220 kts | 5° |
| 2026-04-30 07:59 | 49.94075 | 30.86910 | 6322 ft | 221 kts | 14° |
| 2026-04-30 08:00 | 49.97115 | 30.87765 | 5756 ft | 221 kts | 4° |
| 2026-04-30 08:00 | 49.98639 | 30.87919 | 5486 ft | 219 kts | 2° |
| 2026-04-30 08:00 | 50.00154 | 30.88038 | 5219 ft | 216 kts | 2° |
| 2026-04-30 08:00 | 50.01642 | 30.88150 | 4951 ft | 215 kts | 2° |
| 2026-04-30 08:01 | 50.03128 | 30.88259 | 4686 ft | 213 kts | 2° |
| 2026-04-30 08:01 | 50.04613 | 30.88367 | 4426 ft | 216 kts | 2° |
| 2026-04-30 08:01 | 50.06120 | 30.88474 | 4163 ft | 217 kts | 2° |
| 2026-04-30 08:01 | 50.07608 | 30.88582 | 4047 ft | 208 kts | 2° |
| 2026-04-30 08:02 | 50.10360 | 30.88782 | 3935 ft | 187 kts | 2° |
| 2026-04-30 08:02 | 50.11621 | 30.88872 | 3879 ft | 177 kts | 1° |
| 2026-04-30 08:03 | 50.13917 | 30.89039 | 3699 ft | 160 kts | 1° |
| 2026-04-30 08:03 | 50.16066 | 30.89194 | 3407 ft | 147 kts | 1° |
| 2026-04-30 08:03 | 50.17098 | 30.89268 | 3228 ft | 148 kts | 1° |
| 2026-04-30 08:04 | 50.18129 | 30.89343 | 3082 ft | 147 kts | 1° |
| 2026-04-30 08:04 | 50.19144 | 30.89416 | 2944 ft | 148 kts | 2° |
| 2026-04-30 08:04 | 50.20174 | 30.89491 | 2874 ft | 147 kts | 2° |
| 2026-04-30 08:04 | 50.21214 | 30.89566 | 2725 ft | 150 kts | 2° |
| 2026-04-30 08:05 | 50.22226 | 30.89640 | 2488 ft | 141 kts | 2° |
| 2026-04-30 08:05 | 50.23174 | 30.89709 | 2296 ft | 133 kts | 2° |
| 2026-04-30 08:05 | 50.24104 | 30.89776 | 2119 ft | 134 kts | 2° |
| 2026-04-30 08:05 | 50.25028 | 30.89843 | 1934 ft | 134 kts | 2° |
| 2026-04-30 08:06 | 50.25961 | 30.89911 | 1743 ft | 134 kts | 2° |
| 2026-04-30 08:06 | 50.26892 | 30.89979 | 1559 ft | 134 kts | 2° |
| 2026-04-30 08:06 | 50.27826 | 30.90047 | 1371 ft | 134 kts | 1° |
| 2026-04-30 08:06 | 50.28766 | 30.90116 | 1184 ft | 134 kts | 1° |
| 2026-04-30 08:07 | 50.29693 | 30.90185 | 1003 ft | 134 kts | 2° |
| 2026-04-30 08:07 | 50.30624 | 30.90250 | 818 ft | 134 kts | 2° |
| 2026-04-30 08:07 | 50.31554 | 30.90317 | 637 ft | 134 kts | 2° |
| 2026-04-30 08:07 | 50.32490 | 30.90388 | 464 ft | 136 kts | 2° |
| 2026-04-30 08:08 | 50.33406 | 30.90453 | 417 ft | 115 kts | 1° |
| 2026-04-30 08:08 | 50.33963 | 30.90481 | 413 ft | 48 kts | 3° |
| 2026-04-30 08:08 | 50.34188 | 30.90503 | 410 ft | 22 kts | 358° |
| 2026-04-30 08:08 | 50.34290 | 30.90476 | 410 ft | 13 kts | 343° |
| 2026-04-30 08:09 | 50.34374 | 30.90423 | 410 ft | 12 kts | 334° |
| 2026-04-30 08:09 | 50.34453 | 30.90361 | 409 ft | 12 kts | 333° |
| 2026-04-30 08:09 | 50.34505 | 30.90264 | 409 ft | 12 kts | 264° |
| 2026-04-30 08:09 | 50.34441 | 30.90204 | 409 ft | 11 kts | 182° |
| 2026-04-30 08:10 | 50.34345 | 30.90198 | 410 ft | 16 kts | 182° |
| 2026-04-30 08:10 | 50.34220 | 30.90190 | 410 ft | 18 kts | 183° |
| 2026-04-30 08:10 | 50.34095 | 30.90180 | 410 ft | 18 kts | 183° |
| 2026-04-30 08:10 | 50.33969 | 30.90171 | 410 ft | 18 kts | 182° |
| 2026-04-30 08:11 | 50.33842 | 30.90159 | 410 ft | 18 kts | 183° |
| 2026-04-30 08:11 | 50.33719 | 30.90151 | 411 ft | 17 kts | 182° |
| 2026-04-30 08:11 | 50.33638 | 30.90146 | 414 ft | 6 kts | 184° |
| 2026-04-30 08:11 | 50.33608 | 30.90116 | 415 ft | 4 kts | 239° |
| 2026-04-30 08:12 | 50.33601 | 30.90029 | 415 ft | 11 kts | 271° |
| 2026-04-30 08:12 | 50.33605 | 30.89900 | 415 ft | 11 kts | 272° |
| 2026-04-30 08:12 | 50.33607 | 30.89844 | 415 ft | 0 kts | 271° |
| 2026-04-30 08:13 | 50.33607 | 30.89835 | 415 ft | 2 kts | 271° |
| 2026-04-30 08:13 | 50.33608 | 30.89794 | 416 ft | 4 kts | 272° |
| 2026-04-30 08:13 | 50.33610 | 30.89713 | 419 ft | 10 kts | 272° |
| 2026-04-30 08:14 | 50.33601 | 30.89574 | 420 ft | 14 kts | 255° |
| 2026-04-30 08:14 | 50.33574 | 30.89458 | 420 ft | 11 kts | 210° |
| 2026-04-30 08:14 | 50.33513 | 30.89506 | 419 ft | 12 kts | 98° |
| 2026-04-30 08:14 | 50.33510 | 30.89574 | 419 ft | 3 kts | 92° |
| 2026-04-30 08:15 | 50.33499 | 30.89594 | 419 ft | 3 kts | 164° |
| 2026-04-30 08:15 | 50.33475 | 30.89594 | 418 ft | 4 kts | 182° |
| 2026-04-30 08:15 | 50.33438 | 30.89591 | 418 ft | 6 kts | 182° |
| 2026-04-30 08:15 | 50.33416 | 30.89590 | 417 ft | 0 kts | 182° |